Time;durP1;ratioP1;P1;durP2;ratioP2;P2;SDS_P1;SDS_P2;PMS_P1;PMS_P2;Temp;Humidity;BMP_temperature;BMP_pressure;BME280_temperature;BME280_humidity;BME280_pressure;Samples;Min_cycle;Max_cycle;Signal;HPM_P1;HPM_P2
2022/07/08 05:50:13;;;;;;;;;6.00;6.00;;;;;20.57;45.43;102887.16;5095592;27;46019;-79
2022/07/08 05:52:38;;;;;;;;;3.00;3.00;;;;;20.70;45.75;102878.25;5075323;27;45902;-81
2022/07/08 05:55:04;;;;;;;;;2.25;2.25;;;;;20.98;47.66;102879.22;5080388;27;45640;-82
2022/07/08 05:57:29;;;;;;;;;1.67;1.67;;;;;21.31;48.15;102886.09;5074056;27;45517;-81
2022/07/08 05:59:54;;;;;;;;;3.00;3.00;;;;;21.66;49.05;102882.84;5080396;27;46025;-78
2022/07/08 06:02:20;;;;;;;;;1.33;1.33;;;;;22.02;49.17;102890.44;5075812;27;45739;-80
2022/07/08 06:04:45;;;;;;;;;2.00;2.00;;;;;22.37;48.13;102893.34;5077061;27;45534;-81
2022/07/08 06:07:10;;;;;;;;;1.00;1.00;;;;;22.71;48.37;102884.69;5081679;27;45437;-81
2022/07/08 06:09:37;;;;;;;;;3.67;2.00;;;;;23.06;48.45;102888.50;5085469;27;45883;-81
2022/07/08 06:12:03;;;;;;;;;5.00;3.00;;;;;23.37;48.32;102878.09;5075496;27;45777;-81
2022/07/08 06:14:28;;;;;;;;;1.67;1.67;;;;;23.65;47.68;102878.72;5096370;27;45472;-83
2022/07/08 06:16:54;;;;;;;;;2.33;2.33;;;;;23.94;47.42;102889.16;5087210;27;45520;-84
2022/07/08 06:19:19;;;;;;;;;3.67;3.00;;;;;24.19;46.82;102884.53;5090409;27;46899;-87
2022/07/08 06:21:44;;;;;;;;;3.00;3.00;;;;;24.45;46.41;102889.72;5104000;27;45665;-83
2022/07/08 06:24:10;;;;;;;;;5.00;3.00;;;;;24.68;46.14;102887.03;5091536;27;45378;-79
2022/07/08 06:26:36;;;;;;;;;4.00;4.00;;;;;24.89;45.62;102893.59;5101710;27;45434;-85
2022/07/08 06:29:03;;;;;;;;;7.00;3.67;;;;;25.08;44.96;102891.06;5085962;27;45498;-81
2022/07/08 06:33:58;;;;;;;;;2.67;2.67;;;;;25.42;44.50;102894.69;5099997;27;45754;-81
2022/07/08 06:36:25;;;;;;;;;3.00;3.00;;;;;25.56;43.94;102888.09;5089051;27;45440;-81
2022/07/08 06:38:51;;;;;;;;;2.33;2.33;;;;;25.71;43.43;102892.22;5081658;27;45463;-79
2022/07/08 06:41:16;;;;;;;;;3.00;2.33;;;;;25.85;42.54;102882.88;5085731;27;45862;-80
2022/07/08 06:43:43;;;;;;;;;4.00;4.00;;;;;26.00;42.28;102897.00;5083699;27;45736;-80
2022/07/08 06:46:08;;;;;;;;;2.00;2.00;;;;;26.13;42.02;102895.94;5095037;27;45528;-79
2022/07/08 06:48:33;;;;;;;;;4.67;4.67;;;;;26.21;42.34;102878.94;5083145;27;45719;-79
2022/07/08 06:50:59;;;;;;;;;4.00;4.00;;;;;26.34;41.92;102895.94;5076019;27;45359;-82
2022/07/08 06:53:25;;;;;;;;;4.00;2.67;;;;;26.42;41.39;102895.25;5088549;27;49844;-81
2022/07/08 06:55:50;;;;;;;;;2.33;2.33;;;;;26.51;41.06;102897.16;5090232;27;45320;-81
2022/07/08 06:58:16;;;;;;;;;5.00;3.33;;;;;26.56;41.23;102899.47;5082167;27;45609;-81
2022/07/08 07:00:42;;;;;;;;;7.33;4.33;;;;;26.67;41.44;102904.81;5082533;27;45709;-80
2022/07/08 07:03:07;;;;;;;;;3.00;2.67;;;;;26.75;40.90;102900.53;5088151;27;45437;-80
2022/07/08 07:05:33;;;;;;;;;3.67;3.67;;;;;26.82;41.15;102899.84;5087918;27;45433;-81
2022/07/08 07:07:58;;;;;;;;;4.33;4.33;;;;;26.88;40.86;102894.84;5074537;27;45541;-82
2022/07/08 07:10:23;;;;;;;;;3.00;3.00;;;;;26.96;40.39;102895.91;5086851;27;45443;-80
2022/07/08 07:12:49;;;;;;;;;3.00;3.00;;;;;27.02;40.49;102902.63;5087476;27;47012;-78
2022/07/08 07:15:14;;;;;;;;;6.33;4.67;;;;;27.07;40.71;102900.38;5089636;27;45489;-77
2022/07/08 07:17:42;;;;;;;;;5.33;4.67;;;;;27.09;39.85;102901.09;5090586;27;45736;-82
2022/07/08 07:20:09;;;;;;;;;4.00;4.00;;;;;27.16;40.43;102900.50;5089083;27;45583;-83
2022/07/08 07:22:34;;;;;;;;;6.00;5.00;;;;;27.19;40.30;102901.13;5085963;27;46074;-81
2022/07/08 07:24:59;;;;;;;;;6.00;4.67;;;;;27.22;39.66;102900.81;5076432;27;45509;-81
2022/07/08 07:27:25;;;;;;;;;4.67;4.67;;;;;27.25;40.17;102904.28;5083466;27;45579;-80
2022/07/08 07:29:50;;;;;;;;;4.33;4.33;;;;;27.24;40.16;102897.97;5075055;27;45515;-80
2022/07/08 07:32:15;;;;;;;;;3.67;3.67;;;;;27.29;40.10;102902.97;5082921;27;46272;-80
2022/07/08 07:34:41;;;;;;;;;4.33;4.33;;;;;27.32;39.88;102897.25;5080872;27;45683;-82
2022/07/08 07:37:07;;;;;;;;;5.00;4.00;;;;;27.32;39.50;102908.16;5079614;27;45737;-82
2022/07/08 07:39:33;;;;;;;;;4.33;3.67;;;;;27.35;38.96;102908.72;5081947;27;45401;-80
2022/07/08 07:41:58;;;;;;;;;5.33;4.00;;;;;27.38;39.57;102906.72;5076568;27;46161;-79
2022/07/08 07:44:24;;;;;;;;;3.00;3.00;;;;;27.40;39.19;102910.16;5079171;27;45399;-80
2022/07/08 07:46:49;;;;;;;;;3.67;3.67;;;;;27.44;39.05;102919.78;5070695;28;45782;-86
2022/07/08 07:49:14;;;;;;;;;4.33;4.33;;;;;27.43;38.40;102910.72;5070242;27;48597;-87
2022/07/08 07:51:40;;;;;;;;;4.00;4.00;;;;;27.47;38.19;102914.06;5065554;27;45910;-84
2022/07/08 07:54:05;;;;;;;;;4.67;4.67;;;;;27.47;38.33;102909.44;5073359;27;45565;-86
2022/07/08 07:56:30;;;;;;;;;6.00;3.33;;;;;27.50;38.08;102911.00;5072136;27;45392;-84
2022/07/08 07:58:56;;;;;;;;;3.00;3.00;;;;;27.54;38.47;102906.16;5075497;27;45395;-84
2022/07/08 08:01:21;;;;;;;;;5.00;5.00;;;;;27.56;38.36;102909.59;5073543;28;46968;-80
2022/07/08 08:03:46;;;;;;;;;4.67;4.67;;;;;27.57;38.29;102908.56;5072580;27;45437;-78
2022/07/08 08:06:12;;;;;;;;;3.00;3.00;;;;;27.61;38.14;102904.59;5068396;28;45724;-78
2022/07/08 08:08:37;;;;;;;;;6.00;5.00;;;;;27.62;37.50;102896.28;5068346;28;45441;-81
2022/07/08 08:11:03;;;;;;;;;6.00;5.00;;;;;27.67;37.50;102904.00;5071595;27;46068;-82
2022/07/08 08:13:29;;;;;;;;;5.00;4.00;;;;;27.69;37.26;102902.00;5069804;27;45452;-79
2022/07/08 08:15:55;;;;;;;;;7.00;5.00;;;;;27.70;37.83;102903.72;5067903;28;45598;-80
2022/07/08 08:18:21;;;;;;;;;5.00;4.00;;;;;27.70;36.80;102908.31;5071954;28;46725;-77
2022/07/08 08:20:46;;;;;;;;;4.33;4.33;;;;;27.67;37.44;102898.56;5070040;28;46575;-81
2022/07/08 08:23:12;;;;;;;;;5.00;5.00;;;;;27.65;37.49;102894.25;5069865;28;45762;-79
2022/07/08 08:25:37;;;;;;;;;5.00;5.00;;;;;27.68;37.61;102893.97;5066034;28;45550;-83
2022/07/08 08:28:03;;;;;;;;;5.00;5.00;;;;;27.71;37.38;102899.16;5071592;27;45655;-83
2022/07/08 08:30:29;;;;;;;;;4.67;3.67;;;;;27.74;37.45;102899.72;5070055;28;46586;-83
2022/07/08 08:32:55;;;;;;;;;6.00;6.00;;;;;27.76;37.25;102894.13;5072264;27;45509;-82
2022/07/08 08:35:20;;;;;;;;;4.00;4.00;;;;;27.76;37.23;102891.38;5066027;28;45469;-82
2022/07/08 08:37:46;;;;;;;;;6.33;5.00;;;;;27.76;36.70;102891.38;5068474;27;45552;-76
2022/07/08 08:40:12;;;;;;;;;4.67;4.67;;;;;27.77;36.67;102884.03;5068925;28;45437;-79
2022/07/08 08:42:40;;;;;;;;;6.00;6.00;;;;;27.78;37.00;102889.34;5072096;28;45382;-80
2022/07/08 08:45:06;;;;;;;;;5.00;3.67;;;;;27.78;37.16;102880.31;5072121;28;45505;-80
2022/07/08 08:47:34;;;;;;;;;7.00;6.00;;;;;27.79;36.84;102874.69;5070514;27;45792;-80
2022/07/08 08:52:50;;;;;;;;;4.67;4.33;;;;;27.83;36.78;102878.88;5070879;28;45742;-81
2022/07/08 08:55:27;;;;;;;;;5.00;5.00;;;;;27.84;37.04;102874.28;5068882;28;45898;-75
2022/07/08 08:57:56;;;;;;;;;4.33;4.33;;;;;27.85;36.89;102871.41;5069932;27;45550;-82
2022/07/08 09:00:22;;;;;;;;;5.00;4.00;;;;;27.86;36.83;102867.66;5071334;27;45483;-81
2022/07/08 09:02:47;;;;;;;;;9.00;7.00;;;;;27.83;36.78;102862.50;5071158;28;45465;-78
2022/07/08 09:05:14;;;;;;;;;6.00;6.00;;;;;27.86;37.14;102873.13;5069613;27;45399;-81
2022/07/08 09:07:40;;;;;;;;;5.00;4.33;;;;;27.86;36.97;102858.59;5069037;27;45589;-80
2022/07/08 09:10:06;;;;;;;;;6.00;4.33;;;;;27.88;37.04;102862.91;5070087;27;45449;-80
2022/07/08 09:12:31;;;;;;;;;5.00;5.00;;;;;27.91;36.49;102866.38;5071122;27;45850;-80
2022/07/08 09:15:00;;;;;;;;;7.00;4.67;;;;;27.93;36.97;102859.75;5070906;28;45513;-81
2022/07/08 09:17:26;;;;;;;;;6.33;6.00;;;;;27.94;36.61;102860.59;5068402;28;46028;-81
2022/07/08 09:19:51;;;;;;;;;4.00;4.00;;;;;27.95;36.88;102860.44;5068308;27;45543;-79
2022/07/08 09:22:17;;;;;;;;;6.00;5.67;;;;;27.97;36.39;102866.66;5063176;28;47133;-82
2022/07/08 09:24:43;;;;;;;;;5.67;4.33;;;;;28.00;36.94;102852.69;5069076;28;47177;-79
2022/07/08 09:27:10;;;;;;;;;5.33;5.00;;;;;28.02;36.99;102849.81;5070918;28;45334;-76
2022/07/08 09:29:39;;;;;;;;;3.33;3.33;;;;;28.04;36.27;102864.19;5070063;27;45715;-76
2022/07/08 09:32:15;;;;;;;;;3.00;3.00;;;;;28.04;35.81;102852.41;5068926;28;45533;-76
2022/07/08 09:34:43;;;;;;;;;4.67;4.00;;;;;28.04;34.81;102838.75;5068912;27;46667;-76
2022/07/08 09:37:11;;;;;;;;;6.33;6.33;;;;;28.02;35.13;102849.81;5070187;27;45710;-79
2022/07/08 09:39:37;;;;;;;;;4.00;4.00;;;;;28.02;35.42;102845.22;5070391;27;45925;-76
2022/07/08 09:42:05;;;;;;;;;6.67;6.67;;;;;28.04;35.34;102844.22;5065986;27;46358;-80
2022/07/08 09:44:30;;;;;;;;;4.67;4.67;;;;;28.05;35.46;102843.19;5060981;27;45453;-81
2022/07/08 09:46:56;;;;;;;;;5.33;5.33;;;;;28.05;34.77;102843.19;5068449;27;45531;-77
2022/07/08 09:49:32;;;;;;;;;5.00;5.00;;;;;28.00;35.04;102836.31;5063957;27;45477;-76
2022/07/08 09:51:59;;;;;;;;;5.00;5.00;;;;;27.97;35.66;102843.94;5059445;27;45470;-76
2022/07/08 09:54:26;;;;;;;;;6.67;5.00;;;;;27.96;35.28;102842.22;5060609;27;45524;-75
2022/07/08 09:57:06;;;;;;;;;5.00;5.00;;;;;27.95;35.83;102846.81;5059615;28;45565;-75
2022/07/08 09:59:33;;;;;;;;;7.00;6.00;;;;;27.95;35.92;102841.34;5056663;27;46222;-78
2022/07/08 10:02:00;;;;;;;;;5.00;5.00;;;;;27.97;35.50;102853.00;5059037;27;45451;-77
2022/07/08 10:04:26;;;;;;;;;4.67;4.67;;;;;27.97;35.49;102850.28;5062613;27;46126;-77
2022/07/08 10:06:52;;;;;;;;;6.00;6.00;;;;;27.99;35.43;102848.25;5058772;28;45571;-76
2022/07/08 10:09:19;;;;;;;;;4.00;4.00;;;;;28.01;36.11;102835.31;5058719;27;46102;-78
2022/07/08 10:11:47;;;;;;;;;4.33;4.33;;;;;28.02;35.74;102837.03;5058475;27;45498;-77
2022/07/08 10:14:12;;;;;;;;;7.00;7.00;;;;;28.05;35.82;102835.00;5063295;27;45520;-74
2022/07/08 10:16:39;;;;;;;;;4.00;4.00;;;;;28.05;34.73;102835.88;5060776;27;45402;-74
2022/07/08 10:19:09;;;;;;;;;3.67;3.67;;;;;28.01;34.51;102843.50;5061614;27;46311;-75
2022/07/08 10:21:39;;;;;;;;;5.67;5.33;;;;;27.99;34.59;102840.06;5060918;27;46595;-75
2022/07/08 10:24:09;;;;;;;;;5.33;5.33;;;;;27.98;34.16;102827.41;5059115;27;45581;-73
2022/07/08 10:26:40;;;;;;;;;7.33;6.00;;;;;27.97;34.19;102827.56;5063809;27;45509;-74
2022/07/08 10:29:08;;;;;;;;;5.00;5.00;;;;;27.95;34.65;102838.63;5057713;27;47148;-74
2022/07/08 10:31:50;;;;;;;;;7.67;5.67;;;;;27.95;34.06;102824.97;5060777;27;46164;-73
2022/07/08 10:34:35;;;;;;;;;3.33;3.33;;;;;27.95;34.76;102829.59;5059309;27;45496;-75
2022/07/08 10:37:03;;;;;;;;;6.67;5.67;;;;;27.95;34.63;102826.88;5058630;27;45639;-74
2022/07/08 10:39:40;;;;;;;;;5.00;5.00;;;;;27.91;34.74;102819.97;5062282;27;47173;-74
2022/07/08 10:42:07;;;;;;;;;6.67;5.67;;;;;27.93;34.48;102827.00;5062790;27;47058;-74
2022/07/08 10:44:42;;;;;;;;;4.00;4.00;;;;;27.93;34.31;102831.59;5059551;27;47001;-74
2022/07/08 10:47:11;;;;;;;;;8.00;7.00;;;;;27.93;33.81;102835.19;5060050;27;45521;-77
2022/07/08 10:49:47;;;;;;;;;4.67;4.67;;;;;27.94;33.54;102828.72;5063542;27;45541;-75
2022/07/08 10:52:14;;;;;;;;;7.33;5.33;;;;;27.91;33.96;102825.44;5062463;27;45989;-74
2022/07/08 10:54:39;;;;;;;;;6.67;6.67;;;;;27.90;33.21;102826.44;5065265;27;46023;-74
2022/07/08 10:57:27;;;;;;;;;7.00;5.67;;;;;27.91;33.93;102822.72;5066039;27;45569;-74
2022/07/08 11:00:08;;;;;;;;;6.00;6.00;;;;;27.88;33.45;102819.25;5061746;27;46531;-75
2022/07/08 11:02:39;;;;;;;;;6.00;6.00;;;;;27.88;33.16;102815.69;5065789;27;45339;-74
2022/07/08 11:05:05;;;;;;;;;8.00;6.67;;;;;27.86;32.95;102820.41;5071236;27;45491;-74
2022/07/08 11:07:30;;;;;;;;;6.00;6.00;;;;;27.83;33.05;102818.84;5062421;27;45550;-74
2022/07/08 11:10:11;;;;;;;;;5.67;5.00;;;;;27.83;33.69;102820.72;5057807;27;47090;-74
2022/07/08 11:12:46;;;;;;;;;6.00;5.00;;;;;27.81;33.14;102820.00;5059670;27;45750;-74
2022/07/08 11:15:11;;;;;;;;;8.00;8.00;;;;;27.79;33.91;102811.09;5058949;27;45606;-74
2022/07/08 11:17:38;;;;;;;;;5.67;4.67;;;;;27.77;33.71;102816.72;5057293;27;46017;-74
2022/07/08 11:20:10;;;;;;;;;6.00;6.00;;;;;27.76;33.81;102812.25;5060146;28;46138;-74
2022/07/08 11:22:40;;;;;;;;;6.33;5.00;;;;;27.77;33.35;102810.38;5061961;27;45536;-74
2022/07/08 11:25:08;;;;;;;;;6.67;6.67;;;;;27.77;34.09;102813.09;5059573;27;45887;-74
2022/07/08 11:27:33;;;;;;;;;5.33;5.33;;;;;27.77;33.94;102813.97;5056142;27;46122;-76
2022/07/08 11:30:02;;;;;;;;;6.67;6.00;;;;;27.79;33.55;102808.38;5060939;27;47193;-76
2022/07/08 11:32:27;;;;;;;;;6.00;6.00;;;;;27.78;33.49;102799.31;5060310;27;45640;-74
2022/07/08 11:34:55;;;;;;;;;5.00;5.00;;;;;27.80;33.69;102805.50;5056251;28;45549;-74
2022/07/08 11:37:21;;;;;;;;;4.00;4.00;;;;;27.82;33.19;102813.53;5054818;28;45711;-74
2022/07/08 11:39:47;;;;;;;;;4.67;4.67;;;;;27.80;33.59;102801.91;5057014;28;46744;-74
2022/07/08 11:42:13;;;;;;;;;4.67;4.33;;;;;27.82;33.45;102806.22;5057393;28;46785;-74
2022/07/08 11:44:39;;;;;;;;;5.67;5.00;;;;;27.81;33.50;102800.91;5059572;28;45671;-76
2022/07/08 11:47:05;;;;;;;;;6.67;4.67;;;;;27.83;34.13;102793.44;5062321;27;45540;-77
2022/07/08 11:49:32;;;;;;;;;7.33;4.00;;;;;27.86;34.22;102794.00;5054379;27;46917;-77
2022/07/08 11:51:58;;;;;;;;;4.67;4.67;;;;;27.91;34.05;102792.69;5062309;28;45585;-75
2022/07/08 11:54:26;;;;;;;;;6.00;4.00;;;;;27.95;33.32;102802.31;5060844;28;45603;-74
2022/07/08 11:56:56;;;;;;;;;6.00;4.67;;;;;27.96;33.34;102799.41;5069503;27;45520;-73
2022/07/08 11:59:26;;;;;;;;;6.67;6.33;;;;;27.98;33.71;102793.78;5053901;28;46303;-75
2022/07/08 12:01:53;;;;;;;;;7.33;5.67;;;;;27.96;33.34;102793.94;5059862;28;45613;-76
2022/07/08 12:04:19;;;;;;;;;7.33;6.00;;;;;27.95;33.77;102788.66;5056530;28;45562;-76
2022/07/08 12:06:49;;;;;;;;;6.33;5.33;;;;;27.93;34.03;102791.53;5061741;28;45850;-76
2022/07/08 12:09:19;;;;;;;;;4.00;3.33;;;;;27.94;33.24;102792.38;5056669;28;46070;-76
2022/07/08 12:11:47;;;;;;;;;5.33;3.67;;;;;27.91;33.37;102790.81;5057784;28;45536;-84
2022/07/08 12:14:12;;;;;;;;;6.33;5.00;;;;;27.72;33.70;102789.84;5061833;28;47336;-87
2022/07/08 12:16:46;;;;;;;;;5.33;4.67;;;;;27.53;34.00;102784.41;5063175;28;45415;-86
2022/07/08 12:19:34;;;;;;;;;5.67;4.67;;;;;27.33;34.65;102781.72;5062246;27;45598;-92
2022/07/08 12:22:02;;;;;;;;;6.33;5.00;;;;;27.19;35.05;102780.31;5064192;28;45678;-90
2022/07/08 12:24:31;;;;;;;;;3.67;3.67;;;;;27.08;35.56;102781.31;5063260;27;46533;-88
2022/07/08 12:26:59;;;;;;;;;3.67;3.67;;;;;27.02;35.44;102776.44;5058386;27;45712;-91
2022/07/08 12:29:26;;;;;;;;;5.00;5.00;;;;;26.96;35.68;102766.97;5060361;27;47939;-85
2022/07/08 12:31:51;;;;;;;;;6.33;6.00;;;;;26.91;36.13;102770.09;5059005;28;46172;-89
2022/07/08 12:34:19;;;;;;;;;4.67;4.67;;;;;26.87;36.15;102760.50;5061218;27;45818;-92
2022/07/08 12:36:46;;;;;;;;;5.33;5.33;;;;;26.86;36.78;102763.34;5062352;28;45693;-91
2022/07/08 12:39:12;;;;;;;;;6.00;4.00;;;;;26.81;37.01;102761.91;5060742;28;46276;-84
2022/07/08 12:41:38;;;;;;;;;4.67;4.67;;;;;26.76;36.88;102768.81;5060426;27;45506;-84
2022/07/08 12:44:31;;;;;;;;;6.00;6.00;;;;;26.69;37.44;102763.06;5058968;27;45946;-86
2022/07/08 12:46:57;;;;;;;;;5.00;5.00;;;;;26.65;37.45;102758.91;5062702;28;45532;-83
2022/07/08 12:49:27;;;;;;;;;4.00;4.00;;;;;26.64;37.92;102751.72;5062130;27;46245;-85
2022/07/08 12:51:53;;;;;;;;;4.00;4.00;;;;;26.63;37.75;102760.88;5062904;28;45999;-86
2022/07/08 12:54:19;;;;;;;;;4.00;4.00;;;;;26.64;37.78;102766.19;5072197;27;45571;-86
2022/07/08 12:56:44;;;;;;;;;4.00;3.00;;;;;26.65;37.85;102762.47;5076002;27;47146;-86
2022/07/08 12:59:10;;;;;;;;;5.67;5.33;;;;;26.67;38.58;102765.91;5071367;28;47566;-84
2022/07/08 13:01:35;;;;;;;;;4.33;4.33;;;;;26.66;38.37;102758.75;5064481;27;45557;-83
2022/07/08 13:04:01;;;;;;;;;3.00;3.00;;;;;26.62;38.70;102746.44;5061669;28;46057;-86
2022/07/08 13:06:27;;;;;;;;;5.33;3.00;;;;;26.57;38.89;102732.38;5061843;28;45746;-86
2022/07/08 13:08:52;;;;;;;;;5.00;5.00;;;;;26.57;39.33;102741.38;5060319;27;45546;-84
2022/07/08 13:11:17;;;;;;;;;5.00;5.00;;;;;26.53;39.38;102737.22;5059969;27;47159;-85
2022/07/08 13:13:43;;;;;;;;;3.67;3.67;;;;;26.53;39.50;102733.66;5060603;27;46365;-85
2022/07/08 13:16:08;;;;;;;;;3.67;3.67;;;;;26.51;39.57;102728.34;5058713;27;46403;-84
2022/07/08 13:18:33;;;;;;;;;4.00;3.00;;;;;26.53;39.57;102736.38;5061688;27;46463;-90
2022/07/08 13:20:58;;;;;;;;;5.33;5.33;;;;;26.53;38.12;102731.78;5060934;27;45450;-89
2022/07/08 13:23:24;;;;;;;;;6.67;6.00;;;;;26.50;37.93;102728.47;5060958;27;45933;-85
2022/07/08 13:25:51;;;;;;;;;6.00;5.00;;;;;26.49;37.42;102730.34;5060611;28;46903;-87
2022/07/08 13:28:16;;;;;;;;;5.33;5.33;;;;;26.48;37.85;102730.50;5062183;27;47111;-86
2022/07/08 13:30:42;;;;;;;;;3.33;3.33;;;;;26.46;37.48;102727.91;5063444;27;47142;-90
2022/07/08 13:33:07;;;;;;;;;4.00;3.33;;;;;26.42;37.53;102730.06;5060687;27;45591;-89
2022/07/08 13:35:32;;;;;;;;;5.00;3.67;;;;;26.43;37.89;102728.19;5061131;27;45690;-89
2022/07/08 13:37:58;;;;;;;;;5.00;5.00;;;;;26.41;38.36;102716.56;5061852;27;45540;-87
2022/07/08 13:40:23;;;;;;;;;4.00;4.00;;;;;26.46;38.55;102722.47;5060414;27;45523;-87
2022/07/08 13:42:48;;;;;;;;;4.33;4.33;;;;;26.48;38.26;102715.00;5077957;27;45575;-85
2022/07/08 13:45:14;;;;;;;;;3.00;3.00;;;;;26.53;38.80;102709.16;5062639;27;46938;-85
2022/07/08 13:47:39;;;;;;;;;5.00;5.00;;;;;26.59;38.27;102716.75;5061543;27;46981;-84
2022/07/08 13:50:05;;;;;;;;;5.00;3.33;;;;;26.60;38.50;102710.28;5064236;27;45550;-95
2022/07/08 13:52:30;;;;;;;;;3.33;3.33;;;;;26.61;38.57;102712.03;5065586;28;45655;-90
2022/07/08 13:54:55;;;;;;;;;3.00;3.00;;;;;26.59;38.87;102711.28;5064371;27;45672;-92
2022/07/08 13:57:21;;;;;;;;;4.67;4.67;;;;;26.58;39.07;102710.41;5064562;28;50534;-90
2022/07/08 13:59:46;;;;;;;;;3.33;3.33;;;;;26.56;39.54;102711.56;5060593;27;45740;-85
2022/07/08 14:02:11;;;;;;;;;3.67;3.00;;;;;26.56;39.76;102707.00;5059621;27;46460;-84
2022/07/08 14:04:37;;;;;;;;;4.33;3.00;;;;;26.56;39.22;102706.13;5063739;27;45582;-91
2022/07/08 14:07:02;;;;;;;;;2.67;2.67;;;;;26.55;39.39;102707.13;5063985;27;54731;-92
2022/07/08 14:09:27;;;;;;;;;3.67;3.67;;;;;26.56;40.06;102697.94;5063399;27;45556;-87
2022/07/08 14:11:53;;;;;;;;;5.00;3.00;;;;;26.58;40.18;102704.13;5062111;27;51846;-89
2022/07/08 14:14:18;;;;;;;;;3.00;3.00;;;;;26.60;39.92;102701.28;5060805;27;45612;-85
2022/07/08 14:16:43;;;;;;;;;3.00;2.33;;;;;26.64;39.80;102703.56;5061536;27;45802;-88
2022/07/08 14:19:09;;;;;;;;;4.00;4.00;;;;;26.68;40.00;102698.69;5058228;27;45543;-84
2022/07/08 14:21:34;;;;;;;;;6.67;3.00;;;;;26.72;39.94;102700.13;5060134;27;45812;-79
2022/07/08 14:24:00;;;;;;;;;3.00;3.00;;;;;26.75;40.52;102699.84;5058252;27;45431;-86
2022/07/08 14:26:25;;;;;;;;;3.00;3.00;;;;;26.74;40.01;102692.69;5061375;27;47043;-88
2022/07/08 14:28:50;;;;;;;;;2.67;2.67;;;;;26.72;40.43;102691.94;5055357;27;45503;-85
2022/07/08 14:31:16;;;;;;;;;2.00;2.00;;;;;26.70;40.61;102689.34;5063088;27;45524;-93
2022/07/08 14:33:41;;;;;;;;;3.67;3.67;;;;;26.70;40.89;102697.53;5064161;28;46950;-85
2022/07/08 14:36:06;;;;;;;;;3.00;3.00;;;;;26.70;41.18;102692.09;5060224;27;46161;-87
2022/07/08 14:38:32;;;;;;;;;3.33;3.33;;;;;26.70;41.25;102689.34;5061470;28;46013;-88
2022/07/08 14:40:57;;;;;;;;;4.00;4.00;;;;;26.73;41.36;102682.75;5061340;28;47539;-84
2022/07/08 14:43:23;;;;;;;;;2.67;2.00;;;;;26.73;41.47;102688.22;5060000;28;47082;-88
2022/07/08 14:45:49;;;;;;;;;3.33;3.33;;;;;26.74;40.99;102686.34;5063239;28;46203;-87
2022/07/08 14:48:15;;;;;;;;;3.67;3.67;;;;;26.74;40.37;102678.19;5060933;28;46031;-81
2022/07/08 14:50:40;;;;;;;;;3.00;3.00;;;;;26.74;40.28;102683.63;5061149;28;45744;-83
2022/07/08 14:53:06;;;;;;;;;2.67;2.67;;;;;26.77;40.63;102686.09;5074223;27;45496;-82
2022/07/08 14:55:31;;;;;;;;;3.67;3.67;;;;;26.79;40.61;102679.50;5077501;28;46253;-83
2022/07/08 14:57:58;;;;;;;;;4.00;4.00;;;;;26.79;40.67;102679.50;5065140;28;46912;-84
2022/07/08 15:00:24;;;;;;;;;4.67;3.33;;;;;26.80;40.93;102678.47;5065762;28;45525;-84
2022/07/08 15:02:49;;;;;;;;;4.67;2.67;;;;;26.82;40.40;102673.72;5065544;27;45578;-82
2022/07/08 15:05:14;;;;;;;;;4.33;3.00;;;;;26.82;40.79;102671.00;5063168;27;46263;-85
2022/07/08 15:07:40;;;;;;;;;2.33;2.33;;;;;26.81;41.01;102671.16;5065873;27;45707;-86
2022/07/08 15:10:06;;;;;;;;;3.00;3.00;;;;;26.78;40.57;102666.00;5066409;28;45500;-82
2022/07/08 15:12:31;;;;;;;;;3.33;3.33;;;;;26.78;40.84;102660.56;5064057;27;45881;-83
2022/07/08 15:14:56;;;;;;;;;2.33;2.33;;;;;26.79;41.03;102663.16;5064471;28;48556;-81
2022/07/08 15:17:22;;;;;;;;;2.00;2.00;;;;;26.78;41.41;102660.56;5064468;28;45779;-81
2022/07/08 15:19:47;;;;;;;;;3.67;3.67;;;;;26.79;41.54;102657.69;5064107;27;45432;-82
2022/07/08 15:22:12;;;;;;;;;4.00;4.00;;;;;26.80;41.71;102656.69;5065632;28;45819;-81
2022/07/08 15:24:38;;;;;;;;;2.67;2.67;;;;;26.78;41.46;102649.66;5066981;27;49871;-81
2022/07/08 15:27:04;;;;;;;;;3.00;3.00;;;;;26.80;40.84;102653.97;5069892;27;45461;-82
2022/07/08 15:29:30;;;;;;;;;3.00;3.00;;;;;26.79;40.39;102651.38;5071508;27;45438;-80
2022/07/08 15:31:55;;;;;;;;;3.67;3.67;;;;;26.76;40.03;102644.34;5072783;27;45578;-85
2022/07/08 15:34:20;;;;;;;;;4.67;4.67;;;;;26.78;40.37;102644.22;5060518;27;45983;-82
2022/07/08 15:36:46;;;;;;;;;3.00;3.00;;;;;26.79;40.86;102643.19;5061332;27;49794;-82
2022/07/08 15:39:11;;;;;;;;;4.33;2.67;;;;;26.79;40.79;102640.47;5068507;27;45378;-79
2022/07/08 15:41:36;;;;;;;;;5.67;2.00;;;;;26.82;41.05;102640.19;5086676;27;45526;-80
2022/07/08 15:44:02;;;;;;;;;3.00;3.00;;;;;26.84;40.38;102632.72;5067017;27;46079;-80
2022/07/08 15:46:28;;;;;;;;;3.33;3.33;;;;;26.86;40.92;102632.59;5073645;27;45419;-80
2022/07/08 15:48:54;;;;;;;;;2.67;2.00;;;;;26.87;40.95;102631.56;5075985;27;45450;-80
2022/07/08 15:51:19;;;;;;;;;2.00;2.00;;;;;26.87;41.14;102627.00;5075862;27;45508;-82
2022/07/08 15:53:44;;;;;;;;;3.00;3.00;;;;;26.91;40.54;102633.88;5076066;27;46839;-80
2022/07/08 15:56:10;;;;;;;;;4.33;3.67;;;;;26.94;40.81;102628.16;5077171;27;45398;-81
2022/07/08 15:58:35;;;;;;;;;3.67;3.00;;;;;26.94;41.22;102638.22;5071001;27;45479;-81
2022/07/08 16:01:00;;;;;;;;;2.00;2.00;;;;;26.91;41.33;102622.09;5077188;27;45488;-82
2022/07/08 16:03:26;;;;;;;;;3.00;3.00;;;;;26.89;41.32;102624.97;5072425;27;45543;-79
2022/07/08 16:05:51;;;;;;;;;2.00;2.00;;;;;26.86;41.48;102618.97;5085250;27;45558;-80
2022/07/08 16:08:16;;;;;;;;;0.00;0.00;;;;;26.84;41.69;102627.28;5076481;27;46676;-79
2022/07/08 16:10:42;;;;;;;;;2.33;2.33;;;;;26.83;41.22;102612.81;5078229;27;45449;-80
2022/07/08 16:13:07;;;;;;;;;2.67;2.00;;;;;26.80;41.96;102609.50;5062321;27;45515;-80
2022/07/08 16:15:33;;;;;;;;;2.00;2.00;;;;;26.81;41.89;102619.41;5062442;27;45484;-78
2022/07/08 16:17:58;;;;;;;;;2.67;2.00;;;;;26.82;41.54;102615.69;5062564;27;46944;-90
2022/07/08 16:20:24;;;;;;;;;2.00;2.00;;;;;26.86;42.06;102610.78;5065506;27;47432;-87
2022/07/08 16:22:50;;;;;;;;;2.67;2.67;;;;;26.87;42.13;102607.94;5064435;27;46196;-83
2022/07/08 16:25:15;;;;;;;;;3.00;2.00;;;;;26.95;41.60;102604.50;5062301;27;45449;-80
2022/07/08 16:27:42;;;;;;;;;2.00;2.00;;;;;26.99;41.99;102605.06;5061588;28;47222;-83
2022/07/08 16:30:08;;;;;;;;;3.00;1.33;;;;;27.00;41.69;102596.75;5066309;28;45701;-81
2022/07/08 16:32:33;;;;;;;;;1.67;1.67;;;;;27.03;41.83;102598.31;5074097;28;46290;-80
2022/07/08 16:34:59;;;;;;;;;2.00;2.00;;;;;27.03;42.07;102595.59;5068512;27;45516;-78
2022/07/08 16:37:24;;;;;;;;;1.00;1.00;;;;;27.04;42.21;102598.16;5062451;28;53104;-79
2022/07/08 16:39:49;;;;;;;;;2.00;2.00;;;;;27.01;41.75;102592.16;5063989;28;46278;-82
